Heathrow, Florida
Current Conditions -  °F | °C
As of 9:53 AM on Wednesday 26 Nov 2014 (Local Time) from KSFB Reporting Station
Overcast Overcast  
Wind Chill: 54°   Ceiling: 800
Heat Index: 54°   Visibility: 10mi
Dew Point: 52°   Wind: 14mph
Humidity: 93%   Direction: 300°WNW
Pressure: 30.11"   Gusts: NA
Location:  28.7595°N, 81.3431°W
Report Text: KSFB 261453Z 30012KT 10SM BKN008 BKN012 OVC070 12/11 A3011 RMK AO2 RAB36E51 SLP197 P0001 60004 T01220111 53033
Loading
Personal Weather Stations






























Interactive Weather Map New forecast layout! Learn more

10-Day Weather Forecast

Advertisements
Track Severe Weather on mobile